createdAt,value
2022-12-31T00:00:08.467Z,9.59
2022-12-31T00:02:36.189Z,9.55
2022-12-31T00:05:03.136Z,9.45
2022-12-31T00:07:29.801Z,9.42
2022-12-31T00:09:56.411Z,9.48
2022-12-31T00:12:23.162Z,9.44
2022-12-31T00:14:49.820Z,9.40
2022-12-31T00:17:16.585Z,9.39
2022-12-31T00:19:43.200Z,9.34
2022-12-31T00:22:10.008Z,9.40
2022-12-31T00:24:36.636Z,9.45
2022-12-31T00:27:03.414Z,9.42
2022-12-31T00:29:30.101Z,9.31
2022-12-31T00:31:56.749Z,9.27
2022-12-31T00:34:23.616Z,9.24
2022-12-31T00:36:50.372Z,9.18
2022-12-31T00:39:17.024Z,9.14
2022-12-31T00:41:44.275Z,9.08
2022-12-31T00:44:14.171Z,8.96
2022-12-31T00:49:07.257Z,8.78
2022-12-31T00:51:33.926Z,8.71
2022-12-31T00:54:00.735Z,8.67
2022-12-31T00:56:29.605Z,8.65
2022-12-31T00:58:56.954Z,8.66
2022-12-31T01:01:26.830Z,8.66
2022-12-31T01:03:56.294Z,8.60
2022-12-31T01:06:23.525Z,8.53
2022-12-31T01:08:51.275Z,8.54
2022-12-31T01:11:24.569Z,8.49
2022-12-31T01:13:57.117Z,8.48
2022-12-31T01:16:27.478Z,8.49
2022-12-31T01:18:54.918Z,8.48
2022-12-31T01:21:22.755Z,8.45
2022-12-31T01:23:49.430Z,8.37
2022-12-31T01:26:17.717Z,8.34
2022-12-31T01:28:44.968Z,8.37
2022-12-31T01:31:15.022Z,8.43
2022-12-31T01:33:42.537Z,8.46
2022-12-31T01:36:12.598Z,8.44
2022-12-31T01:38:40.359Z,8.47
2022-12-31T01:41:08.184Z,8.50
2022-12-31T01:43:54.064Z,8.51
2022-12-31T01:46:36.041Z,8.52
2022-12-31T01:49:16.671Z,8.52
2022-12-31T01:51:48.257Z,8.51
2022-12-31T01:54:18.668Z,8.50
2022-12-31T01:56:48.362Z,8.50
2022-12-31T01:59:17.514Z,8.52
2022-12-31T02:01:46.734Z,8.53
2022-12-31T02:04:15.187Z,8.56
2022-12-31T02:06:47.727Z,8.58
2022-12-31T02:09:14.454Z,8.62
2022-12-31T02:11:41.050Z,8.59
2022-12-31T02:14:12.361Z,8.58
2022-12-31T02:17:00.573Z,8.63
2022-12-31T02:20:04.751Z,8.64
2022-12-31T02:22:49.380Z,8.67
2022-12-31T02:26:03.890Z,8.71
2022-12-31T02:28:46.344Z,8.68
2022-12-31T02:31:18.490Z,8.71
2022-12-31T02:33:53.718Z,8.77
2022-12-31T02:36:27.874Z,8.74
2022-12-31T02:38:55.638Z,8.84
2022-12-31T02:41:40.916Z,8.85
2022-12-31T02:44:25.771Z,8.89
2022-12-31T02:47:07.847Z,8.92
2022-12-31T02:49:55.505Z,8.98
2022-12-31T02:53:00.521Z,8.95
2022-12-31T02:55:37.145Z,8.90
2022-12-31T02:58:47.190Z,8.95
2022-12-31T03:01:39.058Z,9.02
2022-12-31T03:04:24.480Z,9.02
2022-12-31T03:06:52.042Z,8.91
2022-12-31T03:09:18.745Z,9.04
2022-12-31T03:12:04.290Z,8.93
2022-12-31T03:14:31.016Z,9.00
2022-12-31T03:16:57.668Z,9.05
2022-12-31T03:19:42.966Z,9.03
2022-12-31T03:22:27.991Z,9.01
2022-12-31T03:25:23.580Z,8.91
2022-12-31T03:27:50.674Z,8.99
2022-12-31T03:30:19.255Z,8.95
2022-12-31T03:32:47.208Z,9.05
2022-12-31T03:35:15.830Z,9.36
2022-12-31T03:37:43.330Z,9.57
2022-12-31T03:40:12.928Z,9.90
2022-12-31T03:42:40.538Z,10.09
2022-12-31T03:45:07.896Z,10.20
2022-12-31T03:47:34.738Z,10.32
2022-12-31T03:50:01.562Z,10.35
2022-12-31T03:52:28.182Z,10.32
2022-12-31T03:54:54.846Z,10.36
2022-12-31T03:57:21.642Z,10.39
2022-12-31T03:59:48.282Z,10.29
2022-12-31T04:02:15.006Z,10.17
2022-12-31T04:04:41.739Z,10.10
2022-12-31T04:07:08.431Z,9.98
2022-12-31T04:09:35.217Z,9.97
2022-12-31T04:12:02.025Z,9.94
2022-12-31T04:14:28.639Z,9.90
2022-12-31T04:16:55.393Z,9.86
2022-12-31T04:19:22.067Z,9.76
2022-12-31T04:21:48.750Z,9.71
2022-12-31T04:24:15.635Z,9.70
2022-12-31T04:26:43.952Z,9.69
2022-12-31T04:29:11.053Z,9.71
2022-12-31T04:31:37.879Z,9.66
2022-12-31T04:34:04.687Z,9.60
2022-12-31T04:36:31.555Z,9.57
2022-12-31T04:38:58.205Z,9.57
2022-12-31T04:41:27.057Z,9.47
2022-12-31T04:43:56.112Z,9.39
2022-12-31T04:46:28.076Z,9.34
2022-12-31T04:48:54.831Z,9.32
2022-12-31T04:51:22.367Z,9.30
2022-12-31T04:53:49.814Z,9.32
2022-12-31T04:56:17.235Z,9.32
2022-12-31T04:58:43.986Z,9.28
2022-12-31T05:01:11.470Z,9.24
2022-12-31T05:03:38.843Z,9.19
2022-12-31T05:06:08.433Z,9.13
2022-12-31T05:08:35.037Z,8.99
2022-12-31T05:11:01.750Z,8.95
2022-12-31T05:13:33.104Z,8.93
2022-12-31T05:16:01.318Z,8.94
2022-12-31T05:18:28.806Z,8.94
2022-12-31T05:20:55.461Z,8.91
2022-12-31T05:23:22.552Z,8.86
2022-12-31T05:25:49.865Z,8.91
2022-12-31T05:28:17.082Z,8.94
2022-12-31T05:30:44.265Z,8.98
2022-12-31T05:33:11.177Z,9.00
2022-12-31T05:35:37.869Z,9.06
2022-12-31T05:38:04.536Z,9.06
2022-12-31T05:40:31.445Z,9.08
2022-12-31T05:42:58.084Z,9.08
2022-12-31T05:45:30.467Z,9.15
2022-12-31T05:47:57.900Z,9.16
2022-12-31T05:50:24.611Z,9.15
2022-12-31T05:52:51.244Z,9.20
2022-12-31T05:55:17.891Z,9.21
2022-12-31T05:57:44.524Z,9.21
2022-12-31T06:00:12.045Z,9.22
2022-12-31T06:02:38.811Z,9.24
2022-12-31T06:05:06.289Z,9.35
2022-12-31T06:07:33.413Z,9.39
2022-12-31T06:10:00.157Z,9.47
2022-12-31T06:12:27.131Z,9.48
2022-12-31T06:14:53.851Z,9.57
2022-12-31T06:17:22.416Z,9.64
2022-12-31T06:19:49.459Z,9.66
2022-12-31T06:22:16.547Z,9.74
2022-12-31T06:24:43.361Z,9.77
2022-12-31T06:27:10.028Z,9.97
2022-12-31T06:29:36.750Z,10.01
2022-12-31T06:32:03.562Z,10.00
2022-12-31T06:34:30.218Z,9.87
2022-12-31T06:36:58.223Z,9.84
2022-12-31T06:39:25.340Z,9.76
2022-12-31T06:41:51.954Z,9.95
2022-12-31T06:44:18.930Z,10.35
2022-12-31T06:46:45.757Z,10.56
2022-12-31T06:49:12.576Z,10.77
2022-12-31T06:51:39.217Z,10.91
2022-12-31T06:54:06.170Z,10.88
2022-12-31T06:56:34.746Z,10.63
2022-12-31T06:59:02.882Z,10.32
2022-12-31T07:01:44.545Z,10.21
2022-12-31T07:04:52.212Z,10.16
2022-12-31T07:08:03.202Z,10.02
2022-12-31T07:10:42.700Z,9.99
2022-12-31T07:13:46.333Z,9.86
2022-12-31T07:16:30.194Z,9.78
2022-12-31T07:19:24.007Z,9.74
2022-12-31T07:21:53.861Z,9.66
2022-12-31T07:24:21.134Z,9.59
2022-12-31T07:26:59.877Z,9.47
2022-12-31T07:29:48.362Z,9.40
2022-12-31T07:32:23.339Z,9.24
2022-12-31T07:35:11.353Z,9.18
2022-12-31T07:37:56.587Z,9.27
2022-12-31T07:40:35.027Z,9.30
2022-12-31T07:43:12.571Z,9.21
2022-12-31T07:45:39.327Z,9.18
2022-12-31T07:48:21.899Z,9.13
2022-12-31T07:50:48.887Z,9.16
2022-12-31T07:53:15.814Z,9.15
2022-12-31T07:55:42.565Z,9.16
2022-12-31T07:58:21.587Z,9.10
2022-12-31T08:00:49.726Z,9.16
2022-12-31T08:03:37.732Z,9.23
2022-12-31T08:06:11.138Z,9.20
2022-12-31T08:09:19.302Z,9.22
2022-12-31T08:12:02.573Z,9.30
2022-12-31T08:14:30.286Z,9.34
2022-12-31T08:16:58.028Z,10.58
2022-12-31T08:19:30.677Z,11.91
2022-12-31T08:22:07.841Z,12.66
2022-12-31T08:24:49.337Z,12.95
2022-12-31T08:27:47.004Z,13.60
2022-12-31T08:30:16.521Z,14.68
2022-12-31T08:32:51.958Z,14.90
2022-12-31T08:35:46.248Z,15.47
2022-12-31T08:38:20.550Z,15.28
2022-12-31T08:40:50.169Z,14.78
2022-12-31T08:43:48.174Z,15.75
2022-12-31T08:46:26.159Z,15.66
2022-12-31T08:48:52.980Z,16.29
2022-12-31T08:51:23.057Z,15.81
2022-12-31T08:53:50.033Z,16.60
2022-12-31T08:56:36.355Z,17.84
2022-12-31T08:59:25.301Z,18.32
2022-12-31T09:02:07.402Z,18.87
2022-12-31T09:05:12.713Z,17.17
2022-12-31T09:07:47.257Z,15.77
2022-12-31T09:10:55.524Z,14.59
2022-12-31T09:13:30.177Z,14.29
2022-12-31T09:16:44.872Z,15.77
2022-12-31T09:19:11.721Z,16.44
2022-12-31T09:21:42.034Z,16.85
2022-12-31T09:24:11.849Z,16.18
2022-12-31T09:26:48.337Z,14.91
2022-12-31T09:29:20.973Z,15.54
2022-12-31T09:31:56.759Z,16.66
2022-12-31T09:34:45.207Z,18.85
2022-12-31T09:37:33.774Z,20.28
2022-12-31T09:40:16.848Z,20.44
2022-12-31T09:43:07.988Z,21.20
2022-12-31T09:46:02.245Z,21.19
2022-12-31T09:48:28.835Z,19.78
2022-12-31T09:51:13.393Z,18.92
2022-12-31T09:54:16.757Z,19.48
2022-12-31T09:57:08.209Z,18.82
2022-12-31T09:59:54.269Z,19.18
2022-12-31T10:02:49.082Z,19.41
2022-12-31T10:05:53.694Z,19.13
2022-12-31T10:08:42.355Z,20.40
2022-12-31T10:11:25.657Z,20.92
2022-12-31T10:14:10.961Z,20.46
2022-12-31T10:16:55.855Z,19.11
2022-12-31T10:19:41.916Z,19.11
2022-12-31T10:22:24.235Z,18.42
2022-12-31T10:24:56.909Z,18.59
2022-12-31T10:27:49.406Z,19.95
2022-12-31T10:30:19.760Z,20.50
2022-12-31T10:33:25.601Z,21.26
2022-12-31T10:36:05.225Z,21.13
2022-12-31T10:38:49.930Z,21.11
2022-12-31T10:41:35.017Z,21.29
2022-12-31T10:44:29.693Z,21.35
2022-12-31T10:47:08.331Z,20.64
2022-12-31T10:50:12.358Z,20.80
2022-12-31T10:53:09.542Z,20.28
2022-12-31T10:55:56.527Z,20.58
2022-12-31T10:58:32.273Z,21.30
2022-12-31T11:01:05.128Z,19.95
2022-12-31T11:03:33.022Z,19.65
2022-12-31T11:06:18.247Z,19.76
2022-12-31T11:09:08.088Z,19.54
2022-12-31T11:11:52.346Z,19.03
2022-12-31T11:14:55.898Z,18.88
2022-12-31T11:17:44.615Z,19.18
2022-12-31T11:20:32.734Z,19.58
2022-12-31T11:23:08.326Z,19.55
2022-12-31T11:25:59.648Z,18.69
2022-12-31T11:28:26.249Z,18.59
2022-12-31T11:31:04.809Z,18.69
2022-12-31T11:33:53.041Z,18.68
2022-12-31T11:36:36.630Z,19.41
2022-12-31T11:39:12.367Z,18.88
2022-12-31T11:42:01.167Z,18.29
2022-12-31T11:44:50.217Z,18.28
2022-12-31T11:47:25.804Z,18.60
2022-12-31T11:50:29.723Z,17.82
2022-12-31T11:53:11.483Z,17.89
2022-12-31T11:56:10.224Z,17.13
2022-12-31T11:58:37.258Z,17.57
2022-12-31T12:01:14.084Z,17.45
2022-12-31T12:03:43.693Z,16.97
2022-12-31T12:06:15.804Z,16.80
2022-12-31T12:08:44.264Z,16.58
2022-12-31T12:11:21.343Z,16.42
2022-12-31T12:13:48.429Z,16.93
2022-12-31T12:16:15.877Z,16.65
2022-12-31T12:18:46.866Z,16.32
2022-12-31T12:21:17.417Z,15.71
2022-12-31T12:24:19.438Z,15.93
2022-12-31T12:26:46.466Z,15.00
2022-12-31T12:29:28.354Z,15.03
2022-12-31T12:31:54.983Z,14.71
2022-12-31T12:34:25.732Z,14.68
2022-12-31T12:36:52.405Z,14.39
2022-12-31T12:39:25.720Z,14.47
2022-12-31T12:42:03.718Z,14.55
2022-12-31T12:44:31.680Z,14.52
2022-12-31T12:46:59.427Z,14.49
2022-12-31T12:49:29.374Z,14.32
2022-12-31T12:52:17.625Z,14.33
2022-12-31T12:55:06.359Z,14.15
2022-12-31T12:58:17.126Z,13.86
2022-12-31T13:01:01.026Z,13.81
2022-12-31T13:04:33.556Z,13.92
2022-12-31T13:07:07.368Z,13.80
2022-12-31T13:09:55.517Z,13.62
2022-12-31T13:13:13.675Z,13.65
2022-12-31T13:15:45.223Z,13.62
2022-12-31T13:18:32.754Z,13.43
2022-12-31T13:21:19.324Z,13.37
2022-12-31T13:23:58.780Z,13.42
2022-12-31T13:26:35.920Z,13.32
2022-12-31T13:29:04.230Z,13.16
2022-12-31T13:31:36.232Z,13.07
2022-12-31T13:34:14.273Z,13.04
2022-12-31T13:36:43.199Z,12.84
2022-12-31T13:39:19.271Z,12.73
2022-12-31T13:41:55.502Z,12.74
2022-12-31T13:44:48.747Z,12.65
2022-12-31T13:47:26.967Z,12.75
2022-12-31T13:50:02.607Z,12.72
2022-12-31T13:52:36.692Z,12.66
2022-12-31T13:55:17.763Z,12.57
2022-12-31T13:57:53.378Z,12.57
2022-12-31T14:00:22.877Z,12.52
2022-12-31T14:03:01.532Z,12.38
2022-12-31T14:05:37.713Z,12.36
2022-12-31T14:08:06.381Z,12.30
2022-12-31T14:11:10.676Z,12.13
2022-12-31T14:13:55.806Z,12.17
2022-12-31T14:16:46.443Z,12.19
2022-12-31T14:19:13.050Z,12.30
2022-12-31T14:21:56.880Z,12.32
2022-12-31T14:24:35.337Z,12.39
2022-12-31T14:27:07.847Z,12.28
2022-12-31T14:29:49.881Z,12.12
2022-12-31T14:32:39.142Z,12.22
2022-12-31T14:35:52.879Z,11.92
2022-12-31T14:38:25.433Z,11.92
2022-12-31T14:41:26.621Z,12.02
2022-12-31T14:44:24.950Z,11.82
2022-12-31T14:46:59.473Z,11.77
2022-12-31T14:49:41.844Z,11.71
2022-12-31T14:52:28.620Z,11.62
2022-12-31T14:55:00.873Z,11.57
2022-12-31T14:58:01.422Z,11.42
2022-12-31T15:00:40.801Z,11.22
2022-12-31T15:03:24.786Z,10.99
2022-12-31T15:05:53.060Z,10.98
2022-12-31T15:08:42.761Z,11.03
2022-12-31T15:11:36.121Z,10.92
2022-12-31T15:14:24.237Z,10.94
2022-12-31T15:17:20.125Z,10.85
2022-12-31T15:20:17.867Z,10.74
2022-12-31T15:22:47.048Z,10.66
2022-12-31T15:25:26.550Z,10.60
2022-12-31T15:27:54.417Z,10.53
2022-12-31T15:30:35.488Z,10.46
2022-12-31T15:33:08.133Z,10.35
2022-12-31T15:35:56.580Z,10.33
2022-12-31T15:38:37.912Z,10.18
2022-12-31T15:41:19.950Z,10.16
2022-12-31T15:43:54.477Z,10.15
2022-12-31T15:46:28.128Z,10.05
2022-12-31T15:49:24.734Z,9.91
2022-12-31T15:52:04.494Z,9.61
2022-12-31T15:54:35.566Z,9.69
2022-12-31T15:57:09.022Z,9.65
2022-12-31T15:59:38.147Z,9.64
2022-12-31T16:02:17.776Z,9.52
2022-12-31T16:04:44.893Z,9.44
2022-12-31T16:07:12.619Z,9.43
2022-12-31T16:09:39.956Z,9.27
2022-12-31T16:12:24.447Z,9.29
2022-12-31T16:14:56.937Z,9.31
2022-12-31T16:17:31.376Z,9.29
2022-12-31T16:19:59.402Z,9.22
2022-12-31T16:22:29.281Z,9.14
2022-12-31T16:27:50.367Z,9.00
2022-12-31T16:30:29.172Z,8.98
2022-12-31T16:33:02.655Z,8.93
2022-12-31T16:35:32.272Z,8.85
2022-12-31T16:38:08.036Z,8.77
2022-12-31T16:40:34.881Z,8.66
2022-12-31T16:43:01.625Z,8.65
2022-12-31T16:45:31.334Z,8.62
2022-12-31T16:48:12.809Z,8.57
2022-12-31T16:50:52.892Z,8.58
2022-12-31T16:53:24.775Z,8.54
2022-12-31T16:56:10.585Z,8.51
2022-12-31T16:58:42.635Z,8.42
2022-12-31T17:01:16.266Z,8.32
2022-12-31T17:03:47.341Z,8.35
2022-12-31T17:06:20.005Z,8.39
2022-12-31T17:08:55.658Z,8.38
2022-12-31T17:11:34.245Z,8.39
2022-12-31T17:14:07.103Z,8.42
2022-12-31T17:16:36.273Z,8.38
2022-12-31T17:19:03.840Z,8.37
2022-12-31T17:21:32.238Z,8.25
2022-12-31T17:24:05.707Z,8.26
2022-12-31T17:26:34.785Z,8.31
2022-12-31T17:29:03.022Z,8.24
2022-12-31T17:31:42.325Z,8.24
2022-12-31T17:34:15.314Z,8.04
2022-12-31T17:36:59.294Z,8.07
2022-12-31T17:39:27.739Z,8.01
2022-12-31T17:41:57.867Z,8.06
2022-12-31T17:44:28.571Z,8.05
2022-12-31T17:46:55.557Z,8.09
2022-12-31T17:49:29.780Z,8.06
2022-12-31T17:51:56.412Z,8.03
2022-12-31T17:54:23.098Z,7.98
2022-12-31T17:56:51.296Z,7.87
2022-12-31T17:59:21.872Z,7.86
2022-12-31T18:01:48.942Z,7.70
2022-12-31T18:04:18.107Z,7.74
2022-12-31T18:06:44.901Z,7.63
2022-12-31T18:09:11.891Z,7.65
2022-12-31T18:11:40.200Z,7.51
2022-12-31T18:14:07.330Z,7.52
2022-12-31T18:16:34.395Z,7.43
2022-12-31T18:19:01.219Z,7.44
2022-12-31T18:21:30.629Z,7.47
2022-12-31T18:26:24.583Z,7.44
2022-12-31T18:28:51.287Z,7.43
2022-12-31T18:31:27.239Z,7.24
2022-12-31T18:33:56.016Z,7.24
2022-12-31T18:36:23.868Z,7.27
2022-12-31T18:38:51.044Z,7.28
2022-12-31T18:41:23.387Z,7.28
2022-12-31T18:43:50.962Z,7.23
2022-12-31T18:46:21.463Z,7.14
2022-12-31T18:48:48.289Z,7.16
2022-12-31T18:51:17.493Z,6.98
2022-12-31T18:53:44.314Z,7.05
2022-12-31T18:56:16.448Z,6.99
2022-12-31T18:58:44.378Z,7.01
2022-12-31T19:01:33.332Z,7.02
2022-12-31T19:04:03.018Z,7.13
2022-12-31T19:06:30.795Z,7.13
2022-12-31T19:08:59.168Z,7.04
2022-12-31T19:11:27.929Z,7.00
2022-12-31T19:13:54.534Z,7.02
2022-12-31T19:16:21.282Z,7.04
2022-12-31T19:18:49.062Z,6.99
2022-12-31T19:21:18.367Z,7.04
2022-12-31T19:23:45.844Z,7.05
2022-12-31T19:26:15.533Z,7.05
2022-12-31T19:28:42.789Z,7.08
2022-12-31T19:31:09.488Z,7.05
2022-12-31T19:33:36.129Z,7.01
2022-12-31T19:36:03.523Z,6.99
2022-12-31T19:38:32.093Z,6.93
2022-12-31T19:41:00.152Z,6.89
2022-12-31T19:43:26.831Z,6.96
2022-12-31T19:45:53.861Z,6.96
2022-12-31T19:48:28.736Z,6.98
2022-12-31T19:50:59.202Z,6.96
2022-12-31T19:53:27.458Z,6.95
2022-12-31T19:55:54.409Z,6.88
2022-12-31T19:58:26.307Z,6.74
2022-12-31T20:01:02.247Z,6.69
2022-12-31T20:03:31.084Z,6.49
2022-12-31T20:06:07.099Z,6.56
2022-12-31T20:08:34.868Z,6.62
2022-12-31T20:11:17.380Z,6.63
2022-12-31T20:13:44.835Z,6.54
2022-12-31T20:16:14.857Z,6.27
2022-12-31T20:18:42.747Z,6.31
2022-12-31T20:21:12.428Z,6.25
2022-12-31T20:23:39.254Z,6.31
2022-12-31T20:26:06.070Z,6.42
2022-12-31T20:28:32.821Z,6.46
2022-12-31T20:31:05.202Z,6.40
2022-12-31T20:33:32.005Z,6.19
2022-12-31T20:36:05.455Z,6.24
2022-12-31T20:38:32.114Z,6.35
2022-12-31T20:41:04.885Z,6.40
2022-12-31T20:43:32.795Z,6.33
2022-12-31T20:46:00.103Z,6.46
2022-12-31T20:48:26.812Z,6.74
2022-12-31T20:50:59.324Z,6.75
2022-12-31T20:53:25.976Z,6.82
2022-12-31T20:55:52.641Z,6.90
2022-12-31T20:58:19.415Z,6.88
2022-12-31T21:00:50.239Z,6.97
2022-12-31T21:04:02.273Z,7.06
2022-12-31T21:06:08.728Z,7.10
2022-12-31T21:08:35.538Z,7.14
2022-12-31T21:11:03.253Z,7.12
2022-12-31T21:13:31.109Z,7.08
2022-12-31T21:15:57.918Z,7.00
2022-12-31T21:18:24.667Z,6.95
2022-12-31T21:20:52.802Z,6.84
2022-12-31T21:23:20.308Z,6.82
2022-12-31T21:25:50.076Z,6.76
2022-12-31T21:28:16.995Z,6.76
2022-12-31T21:30:43.706Z,6.80
2022-12-31T21:33:10.374Z,6.74
2022-12-31T21:35:51.822Z,6.69
2022-12-31T21:38:20.150Z,6.67
2022-12-31T21:40:47.479Z,6.59
2022-12-31T21:43:14.965Z,6.65
2022-12-31T21:45:42.230Z,6.51
2022-12-31T21:48:22.021Z,6.51
2022-12-31T21:51:03.894Z,6.45
2022-12-31T21:53:36.578Z,6.34
2022-12-31T21:56:09.706Z,6.35
2022-12-31T21:58:39.818Z,6.37
2022-12-31T22:01:25.592Z,6.28
2022-12-31T22:03:52.543Z,6.31
2022-12-31T22:06:22.135Z,6.16
2022-12-31T22:08:54.182Z,6.04
2022-12-31T22:11:23.014Z,5.88
2022-12-31T22:13:50.553Z,5.87
2022-12-31T22:16:20.274Z,5.76
2022-12-31T22:18:47.900Z,5.82
2022-12-31T22:21:18.732Z,5.94
2022-12-31T22:23:47.593Z,5.98
2022-12-31T22:26:15.998Z,6.04
2022-12-31T22:28:43.880Z,6.04
2022-12-31T22:31:14.412Z,6.01
2022-12-31T22:33:41.974Z,5.99
2022-12-31T22:36:12.698Z,5.70
2022-12-31T22:38:39.411Z,5.62
2022-12-31T22:41:20.710Z,5.64
2022-12-31T22:44:00.243Z,5.73
2022-12-31T22:46:29.662Z,5.73
2022-12-31T22:49:00.430Z,5.49
2022-12-31T22:51:55.696Z,5.39
2022-12-31T22:54:15.110Z,5.55
2022-12-31T22:56:41.844Z,5.54
2022-12-31T22:59:09.330Z,5.43
2022-12-31T23:01:36.729Z,5.46
2022-12-31T23:04:03.882Z,5.46
2022-12-31T23:06:30.906Z,5.42
2022-12-31T23:09:16.434Z,5.48
2022-12-31T23:11:43.577Z,5.50
2022-12-31T23:14:34.924Z,5.47
2022-12-31T23:17:31.390Z,5.47
2022-12-31T23:20:18.833Z,5.41
2022-12-31T23:23:05.375Z,5.38
2022-12-31T23:25:33.941Z,5.34
2022-12-31T23:28:00.946Z,5.19
2022-12-31T23:30:27.745Z,5.30
2022-12-31T23:32:54.443Z,5.30
2022-12-31T23:35:21.444Z,5.36
2022-12-31T23:37:48.136Z,5.37
2022-12-31T23:40:20.896Z,5.35
2022-12-31T23:42:49.223Z,5.30
2022-12-31T23:45:15.970Z,5.29
2022-12-31T23:47:42.628Z,5.15
2022-12-31T23:50:09.403Z,5.29
2022-12-31T23:52:36.081Z,5.33
2022-12-31T23:55:03.726Z,5.29
2022-12-31T23:57:30.541Z,4.96
2022-12-31T23:59:57.276Z,4.95
